TimeCST,TemperatureF,Dew PointF,Humidity,Sea Level PressureIn,VisibilityMPH,Wind Direction,Wind SpeedMPH,Gust SpeedMPH,PrecipitationIn,Events,Conditions,WindDirDegrees,DateUTC
12:55 AM,15.1,7.0,70,29.97,10.0,South,12.7,-,N/A,,Clear,190,2013-01-07 06:55:00
1:55 AM,16.0,9.0,74,29.90,10.0,South,13.8,-,N/A,,Clear,170,2013-01-07 07:55:00
2:55 AM,17.1,10.0,74,29.86,10.0,South,15.0,-,N/A,,Clear,190,2013-01-07 08:55:00
3:55 AM,17.1,10.9,77,29.83,10.0,SSW,11.5,-,N/A,,Clear,210,2013-01-07 09:55:00
4:55 AM,19.0,12.9,77,29.82,10.0,SW,12.7,-,N/A,,Clear,230,2013-01-07 10:55:00
5:55 AM,21.0,15.1,78,29.79,10.0,SW,20.7,25.3,N/A,,Clear,220,2013-01-07 11:55:00
6:55 AM,21.9,16.0,78,29.79,10.0,SW,18.4,29.9,N/A,,Clear,230,2013-01-07 12:55:00
7:55 AM,23.0,17.1,78,29.78,10.0,SW,18.4,27.6,N/A,,Mostly Cloudy,230,2013-01-07 13:55:00
8:55 AM,24.1,18.0,77,29.80,10.0,WSW,19.6,26.5,N/A,,Mostly Cloudy,240,2013-01-07 14:55:00
9:55 AM,25.0,18.0,75,29.80,10.0,WSW,17.3,-,N/A,,Scattered Clouds,240,2013-01-07 15:55:00
10:55 AM,28.9,19.9,69,29.81,10.0,WSW,18.4,-,N/A,,Partly Cloudy,250,2013-01-07 16:55:00
11:55 AM,33.1,21.9,64,29.77,10.0,WSW,18.4,26.5,N/A,,Partly Cloudy,240,2013-01-07 17:55:00
12:55 PM,35.6,21.2,56,29.69,10.0,WSW,17.3,25.3,N/A,,Partly Cloudy,240,2013-01-07 18:55:00
1:55 PM,37.9,23.0,55,29.76,10.0,WSW,20.7,-,N/A,,Partly Cloudy,250,2013-01-07 19:55:00
2:55 PM,37.9,23.0,55,29.77,10.0,WSW,21.9,-,N/A,,Partly Cloudy,250,2013-01-07 20:55:00
3:55 PM,37.0,23.0,57,29.79,10.0,WSW,23.0,28.8,N/A,,Partly Cloudy,240,2013-01-07 21:55:00
4:55 PM,35.6,21.2,56,29.74,10.0,WSW,18.4,25.3,N/A,,Partly Cloudy,250,2013-01-07 22:55:00
5:55 PM,35.1,21.0,57,29.83,10.0,WSW,18.4,28.8,N/A,,Partly Cloudy,250,2013-01-07 23:55:00
6:55 PM,33.1,21.0,61,29.86,10.0,WSW,16.1,-,N/A,,Clear,250,2013-01-08 00:55:00
7:55 PM,30.0,19.9,66,29.87,10.0,West,13.8,-,N/A,,Clear,270,2013-01-08 01:55:00
8:55 PM,30.9,19.9,64,29.89,10.0,West,13.8,-,N/A,,Clear,280,2013-01-08 02:55:00
9:55 PM,30.0,19.9,66,29.91,10.0,West,10.4,-,N/A,,Clear,270,2013-01-08 03:55:00
10:55 PM,28.0,19.9,72,29.92,10.0,West,9.2,-,N/A,,Clear,280,2013-01-08 04:55:00
11:55 PM,21.9,17.1,82,29.94,10.0,West,9.2,-,N/A,,Clear,270,2013-01-08 05:55:00